Terminal Aerodrome Forecast
Issued by NWS Austin/San Antonio, TX

Home | Current Version | Previous Version | Text Only | Print | Product List | Glossary On
Versions: 1 2 3 4 5 6 7 8 9 10 11 12 13 14 15 16 17 18 19 20 21 22
000
FTUS44 KEWX 282323
TAFSAT
TAF
KSAT 282323Z 2900/3006 16010KT P6SM FEW250
     FM290900 20006KT P6SM FEW250
      TEMPO 2910/2914 FEW012 FEW250
     FM291800 14006KT P6SM SCT250
     FM300100 15010KT P6SM BKN200=

USA.gov is the U.S. government's official web portal to all federal, state and local government web resources and services.